Waldport, OR

8:59 PM PDT on September 24, 2016 (GMT -0700)
Lake Side | | Change Station

Elev 56 ft 44.41 °N, 124.03 °W | Updated 19 seconds ago

Clear
Clear
55.6 °F
Feels Like 55.6 °F
N
0.4
Wind Variable Wind from SSW
Gusts 2.5 mph

Today
High -- | Low -- °F
--% Chance of Precip.
Yesterday
High -- | Low -- °F
Precip. -- in
Pressure 30.34 in
Visibility 10.0 miles
Clouds Clear
Dew Point 54 °F
Humidity 96%
Rainfall 0.00 in
Snow Depth Not available.
7:06 AM 7:08 PM
Waning Crescent, 31% visible
METAR KONP 250335Z AUTO 00000KT 10SM CLR 13/11 A3034 RMK AO2
Pressure 30.34 in
Visibility 10.0 miles
Clouds Clear
Dew Point 54 °F
Humidity 96%
Rainfall 0.00 in
Snow Depth Not available.
7:06 AM 7:08 PM
Waning Crescent, 31% visible
METAR KONP 250335Z AUTO 00000KT 10SM CLR 13/11 A3034 RMK AO2

10-Day Weather Forecast

Almanac

Astronomy

Sep. 24, 2016 Rise Set
Actual Time
Civil Twilight
Nautical Twilight
Astronomical Twilight
Moon
Length of Visible Light
Length of Day
Tomorrow will be .
, % of the Moon is Illuminated

Today's Extremes

State Highs State Lows

Community

WunderPhotos

Upload Photos

1,941,537 photos uploaded!

WunderBlog® & News

Nearby

Air Quality

  Air Quality AQ Index Pollutant
Not available.

Snow Depth

Station Depth Elevation

Earthquake Activity

City Distance Mag. Time & Date
Minimum magnitude displayed is 2.5.

Coastal Water Temperatures

Place Temperature

Stations

Nearby Weather Stations

Station Location Temp. Windchill Dew Point Humidity Wind Precip. Elev Updated Type
                   

Watches & Warnings

There are currently no watches in effect.